createdAt,value
2023-03-13T00:00:28.118Z,14.3
2023-03-13T00:06:11.962Z,14.3
2023-03-13T00:11:47.488Z,14.3
2023-03-13T00:17:22.730Z,14.4
2023-03-13T00:22:57.868Z,14.5
2023-03-13T00:28:32.926Z,14.4
2023-03-13T00:34:07.813Z,14.5
2023-03-13T00:39:43.428Z,14.5
2023-03-13T00:45:19.333Z,14.6
2023-03-13T00:50:54.402Z,14.6
2023-03-13T00:56:29.630Z,14.6
2023-03-13T01:02:13.838Z,14.7
2023-03-13T01:07:50.856Z,14.7
2023-03-13T01:13:25.806Z,14.8
2023-03-13T01:19:02.051Z,14.8
2023-03-13T01:24:36.826Z,14.8
2023-03-13T01:30:11.759Z,14.8
2023-03-13T01:35:47.315Z,14.8
2023-03-13T01:41:44.393Z,14.8
2023-03-13T01:47:19.461Z,14.8
2023-03-13T01:52:54.568Z,14.7
2023-03-13T01:58:29.695Z,14.7
2023-03-13T02:04:05.925Z,14.6
2023-03-13T02:09:41.739Z,14.6
2023-03-13T02:15:17.462Z,14.5
2023-03-13T02:20:52.400Z,14.4
2023-03-13T02:26:27.610Z,14.3
2023-03-13T02:32:02.517Z,14.2
2023-03-13T02:37:37.667Z,14.1
2023-03-13T02:43:13.048Z,14
2023-03-13T02:48:47.852Z,14
2023-03-13T02:54:22.798Z,14
2023-03-13T03:00:04.618Z,14
2023-03-13T03:05:39.793Z,13.9
2023-03-13T03:11:14.831Z,13.9
2023-03-13T03:16:51.453Z,13.8
2023-03-13T03:22:28.549Z,13.8
2023-03-13T03:28:03.770Z,13.8
2023-03-13T03:33:39.286Z,13.8
2023-03-13T03:39:14.460Z,13.7
2023-03-13T03:44:49.721Z,13.7
2023-03-13T03:50:26.269Z,13.7
2023-03-13T03:56:01.453Z,13.6
2023-03-13T04:01:37.765Z,13.6
2023-03-13T04:07:13.629Z,13.6
2023-03-13T04:12:49.015Z,13.6
2023-03-13T04:18:24.522Z,13.6
2023-03-13T04:23:59.737Z,13.5
2023-03-13T04:29:34.859Z,13.5
2023-03-13T04:35:10.025Z,13.5
2023-03-13T04:40:46.142Z,13.5
2023-03-13T04:46:34.819Z,13.5
2023-03-13T04:52:10.989Z,13.5
2023-03-13T04:57:46.368Z,13.5
2023-03-13T05:03:21.560Z,13.5
2023-03-13T05:08:56.622Z,13.6
2023-03-13T05:14:33.007Z,13.6
2023-03-13T05:20:07.968Z,13.6
2023-03-13T05:25:43.472Z,13.6
2023-03-13T05:31:18.721Z,13.5
2023-03-13T05:36:54.944Z,13.5
2023-03-13T05:42:31.204Z,13.5
2023-03-13T05:48:06.590Z,13.5
2023-03-13T05:53:42.307Z,13.5
2023-03-13T05:59:20.189Z,13.4
2023-03-13T06:04:55.799Z,13
2023-03-13T06:10:33.938Z,12.4
2023-03-13T06:16:09.736Z,11.6
2023-03-13T06:21:45.389Z,11.6
2023-03-13T06:27:20.600Z,11.1
2023-03-13T06:32:55.414Z,11.1
2023-03-13T06:38:32.745Z,11.5
2023-03-13T06:44:07.567Z,11.6
2023-03-13T06:49:42.855Z,11.8
2023-03-13T06:55:18.254Z,11.8
2023-03-13T07:00:54.004Z,11.9
2023-03-13T07:06:30.404Z,12
2023-03-13T07:12:05.863Z,12.3
2023-03-13T07:17:40.766Z,12.9
2023-03-13T07:23:19.739Z,13.6
2023-03-13T07:28:56.595Z,13.5
2023-03-13T07:34:33.276Z,13.3
2023-03-13T07:40:17.643Z,13.3
2023-03-13T07:45:54.913Z,12.9
2023-03-13T07:51:42.774Z,12.9
2023-03-13T07:57:19.555Z,12.9
2023-03-13T08:02:55.480Z,12.8
2023-03-13T08:08:31.274Z,12.9
2023-03-13T08:14:06.920Z,13.1
2023-03-13T08:20:03.995Z,13.5
2023-03-13T08:25:39.482Z,14.5
2023-03-13T08:31:20.093Z,15.2
2023-03-13T08:37:04.085Z,15.4
2023-03-13T08:42:39.202Z,15.2
2023-03-13T08:48:14.896Z,14.9
2023-03-13T08:53:50.536Z,14.6
2023-03-13T08:59:26.101Z,14.6
2023-03-13T09:05:01.282Z,14.6
2023-03-13T09:10:36.624Z,14.9
2023-03-13T09:16:13.260Z,15.1
2023-03-13T09:21:49.708Z,15.2
2023-03-13T09:27:25.096Z,15.4
2023-03-13T09:33:00.218Z,15.7
2023-03-13T09:38:37.221Z,16.7
2023-03-13T09:44:13.270Z,16.9
2023-03-13T09:49:48.321Z,17.3
2023-03-13T09:55:23.780Z,17.5
2023-03-13T10:01:08.808Z,18.1
2023-03-13T10:06:57.299Z,19
2023-03-13T10:12:32.878Z,18.8
2023-03-13T10:18:11.360Z,18.9
2023-03-13T10:23:47.979Z,19.1
2023-03-13T10:29:31.047Z,19.9
2023-03-13T10:35:06.814Z,20.5
2023-03-13T10:40:42.397Z,20.7
2023-03-13T10:46:17.592Z,20.9
2023-03-13T10:51:53.919Z,21.2
2023-03-13T10:57:29.592Z,21.3
2023-03-13T11:03:04.722Z,21.9
2023-03-13T11:08:42.260Z,22.3
2023-03-13T11:14:38.417Z,22.1
2023-03-13T11:20:13.972Z,22.5
2023-03-13T11:25:52.276Z,23.2
2023-03-13T11:31:34.245Z,24
2023-03-13T11:37:10.962Z,24.9
2023-03-13T11:42:47.309Z,25.4
2023-03-13T11:48:23.510Z,25.3
2023-03-13T11:54:02.155Z,24.7
2023-03-13T11:59:44.971Z,24.4
2023-03-13T12:05:21.656Z,24.5
2023-03-13T12:10:58.946Z,24.4
2023-03-13T12:16:34.130Z,24.1
2023-03-13T12:22:10.556Z,24.1
2023-03-13T12:27:51.939Z,24.5
2023-03-13T12:33:31.345Z,25.2
2023-03-13T12:39:07.876Z,25.7
2023-03-13T12:44:43.097Z,26.4
2023-03-13T12:50:18.864Z,26.7
2023-03-13T12:55:54.755Z,26.9
2023-03-13T13:01:29.950Z,28
2023-03-13T13:07:07.472Z,28.3
2023-03-13T13:12:43.838Z,28
2023-03-13T13:18:18.843Z,28.1
2023-03-13T13:23:54.179Z,28.6
2023-03-13T13:29:29.955Z,28.8
2023-03-13T13:35:05.189Z,29.8
2023-03-13T13:40:41.212Z,32
2023-03-13T13:46:18.269Z,33.3
2023-03-13T13:51:54.958Z,37.2
2023-03-13T13:57:30.859Z,34.4
2023-03-13T14:03:06.440Z,37.6
2023-03-13T14:08:42.062Z,38
2023-03-13T14:14:17.671Z,32.6
2023-03-13T14:19:54.413Z,28.8
2023-03-13T14:25:29.597Z,27.9
2023-03-13T14:31:05.660Z,27.3
2023-03-13T14:36:41.347Z,32.4
2023-03-13T14:42:18.463Z,32.1
2023-03-13T14:48:03.646Z,32
2023-03-13T14:53:39.282Z,30.1
2023-03-13T14:59:14.656Z,28.7
2023-03-13T15:04:50.384Z,33.9
2023-03-13T15:10:25.773Z,33.4
2023-03-13T15:16:01.424Z,27.9
2023-03-13T15:21:38.678Z,26.4
2023-03-13T15:27:23.052Z,26.6
2023-03-13T15:32:58.153Z,26.2
2023-03-13T15:38:35.177Z,25.6
2023-03-13T15:44:10.981Z,25.2
2023-03-13T15:49:46.014Z,24.7
2023-03-13T15:55:21.803Z,23.3
2023-03-13T16:00:57.079Z,24
2023-03-13T16:06:33.540Z,22.6
2023-03-13T16:12:10.148Z,20.9
2023-03-13T16:17:44.990Z,20.4
2023-03-13T16:23:19.838Z,20.2
2023-03-13T16:29:16.237Z,19.8
2023-03-13T16:36:21.402Z,20.1
2023-03-13T16:41:56.908Z,20.1
2023-03-13T16:47:38.003Z,19.8
2023-03-13T16:53:13.238Z,20
2023-03-13T16:58:48.798Z,19.6
2023-03-13T17:04:27.049Z,19.4
2023-03-13T17:10:04.824Z,19
2023-03-13T17:15:40.741Z,18.8
2023-03-13T17:21:21.370Z,18.5
2023-03-13T17:27:07.212Z,17.8
2023-03-13T17:32:51.337Z,17
2023-03-13T17:38:37.671Z,16.8
2023-03-13T17:44:21.423Z,16.4
2023-03-13T17:50:00.513Z,15.9
2023-03-13T17:56:09.525Z,15.4
2023-03-13T18:03:24.170Z,15.1
2023-03-13T18:09:07.332Z,14.7
2023-03-13T18:14:44.001Z,14.5
2023-03-13T18:20:19.121Z,14.1
2023-03-13T18:25:54.394Z,14
2023-03-13T18:31:48.969Z,13.7
2023-03-13T18:37:25.526Z,13.6
2023-03-13T18:43:01.277Z,13.5
2023-03-13T18:48:36.311Z,13.4
2023-03-13T18:54:12.212Z,13.5
2023-03-13T18:59:47.544Z,13.1
2023-03-13T19:05:41.325Z,13.1
2023-03-13T19:11:17.877Z,12.8
2023-03-13T19:17:01.707Z,13.8
2023-03-13T19:23:21.472Z,14.7
2023-03-13T19:28:59.468Z,15
2023-03-13T19:34:43.381Z,15.1
2023-03-13T19:40:24.772Z,15.1
2023-03-13T19:46:00.546Z,15.1
2023-03-13T19:51:36.403Z,15.2
2023-03-13T19:57:11.814Z,15.2
2023-03-13T20:02:49.283Z,15.2
2023-03-13T20:08:25.553Z,15.2
2023-03-13T20:14:08.689Z,15.2
2023-03-13T20:19:44.031Z,15.2
2023-03-13T20:25:32.609Z,15.2
2023-03-13T20:32:08.037Z,15.2
2023-03-13T20:37:50.620Z,15.1
2023-03-13T20:43:44.322Z,15.1
2023-03-13T20:49:42.577Z,15.1
2023-03-13T20:55:21.669Z,15.1
2023-03-13T21:01:19.548Z,15
2023-03-13T21:07:03.331Z,14.9
2023-03-13T21:12:59.514Z,14.9
2023-03-13T21:18:40.935Z,14.8
2023-03-13T21:24:16.000Z,14.7
2023-03-13T21:29:51.555Z,14.8
2023-03-13T21:35:32.362Z,14.8
2023-03-13T21:41:12.749Z,14.7
2023-03-13T21:46:52.017Z,14.6
2023-03-13T21:53:12.239Z,14.3
2023-03-13T21:58:47.305Z,14.2
2023-03-13T22:04:32.575Z,14.2
2023-03-13T22:10:17.774Z,14.3
2023-03-13T22:15:53.423Z,14.3
2023-03-13T22:21:30.013Z,14.4
2023-03-13T22:27:33.821Z,14.4
2023-03-13T22:33:09.546Z,14.4
2023-03-13T22:38:56.563Z,14.3
2023-03-13T22:44:32.217Z,14.3
2023-03-13T22:50:08.635Z,14.3
2023-03-13T22:56:20.926Z,14.3
2023-03-13T23:01:53.716Z,14.3
2023-03-13T23:09:09.259Z,14.4
2023-03-13T23:14:48.386Z,14.4
2023-03-13T23:20:49.402Z,14.3
2023-03-13T23:26:24.427Z,14.3
2023-03-13T23:32:06.968Z,14.3
2023-03-13T23:37:45.677Z,14.3
2023-03-13T23:43:31.218Z,14.2
2023-03-13T23:49:10.966Z,14.1
2023-03-13T23:55:37.378Z,14
